This is the latest recevied weather packets stored in our database for station/object IT9IJI-15. If no packets are shown the sender has not sent any weather packets the latest 10 day(s).
| Time | Temp. | Humidity | Pressure | Rain* | Wind** | Luminosity | Snow |
|---|---|---|---|---|---|---|---|
| 1777215935 | 27.22° C | 33% | 893.5 hPa | - | - | - | - |
| 1777215035 | 27.22° C | 33% | 893.6 hPa | - | - | - | - |
| 1777214135 | 27.22° C | 33% | 893.7 hPa | - | - | - | - |
| 1777213235 | 27.22° C | 33% | 893.7 hPa | - | - | - | - |
| 1777212338 | 14.44° C | 33% | 876.4 hPa | - | - | - | - |
| 1777211431 | 27.22° C | 34% | 898.8 hPa | - | - | - | - |
| 1777210531 | 27.22° C | 33% | 893.9 hPa | - | - | - | - |
| 1777209631 | 27.22° C | 33% | 893.8 hPa | - | - | - | - |
| 1777208731 | 27.22° C | 33% | 894 hPa | - | - | - | - |
| 1777207837 | 27.22° C | 34% | 894 hPa | - | - | - | - |
| 1777206956 | 27.22° C | 34% | 894 hPa | - | - | - | - |
| 1777206031 | 27.22° C | 34% | 894 hPa | - | - | - | - |
| 1777205131 | 27.22° C | 34% | 894 hPa | - | - | - | - |
| 1777204230 | 27.22° C | 34% | 894.2 hPa | - | - | - | - |
| 1777203331 | 27.22° C | 34% | 894.1 hPa | - | - | - | - |
| 1777202430 | 27.22° C | 34% | 894.2 hPa | - | - | - | - |
| 1777201530 | 27.22° C | 34% | 894.3 hPa | - | - | - | - |
| 1777200630 | 27.22° C | 34% | 894.2 hPa | - | - | - | - |
| 1777199730 | 27.22° C | 35% | 894.3 hPa | - | - | - | - |
| 1777198833 | 18.89° C | 35% | 885.7 hPa | - | - | - | - |
| 1777197906 | 26.67° C | 35% | 894.4 hPa | - | - | - | - |
| 1777197006 | 26.67° C | 34% | 894.4 hPa | - | - | - | - |
| 1777196106 | 27.22° C | 35% | 894.4 hPa | - | - | - | - |
| 1777195206 | 26.67° C | 35% | 894.3 hPa | - | - | - | - |
| 1777194306 | 26.67° C | 35% | 894.2 hPa | - | - | - | - |
* Rain since midnight (hover to see other rain measurements)
** Current wind speed in m/s (hover to see current wind gust speed)